Farber, Missouri
Current Conditions -  °F | °C
As of 12:35 PM on Thursday 27 Nov 2014 (Local Time) from KHAE Reporting Station
Clear Clear  
Wind Chill: -5°   Ceiling: Unl
Heat Index: -1°   Visibility: 10mi
Dew Point: -9°   Wind: 8mph
Humidity: 55%   Direction: 310°NW
Pressure: 30.47"   Gusts: NA
Location:  39.27°N, 91.57°W
Report Text: KHAE 271835Z AUTO 31007KT 10SM CLR M01/M09 A3047 RMK AO2
Loading
Personal Weather Stations






























Interactive Weather Map New forecast layout! Learn more

10-Day Weather Forecast

Advertisements
Track Severe Weather on mobile